createdAt,value
2023-09-22T00:01:18.089Z,2.63
2023-09-22T00:05:21.228Z,3.20
2023-09-22T00:07:22.797Z,2.67
2023-09-22T00:09:24.626Z,2.53
2023-09-22T00:11:26.263Z,2.97
2023-09-22T00:13:27.882Z,3.00
2023-09-22T00:15:29.547Z,2.88
2023-09-22T00:17:31.198Z,3.00
2023-09-22T00:19:33.028Z,2.25
2023-09-22T00:21:35.283Z,2.55
2023-09-22T00:23:36.915Z,2.72
2023-09-22T00:25:38.552Z,2.90
2023-09-22T00:27:40.308Z,2.65
2023-09-22T00:29:41.976Z,3.05
2023-09-22T00:31:43.734Z,3.65
2023-09-22T00:33:45.699Z,2.60
2023-09-22T00:35:47.453Z,4.22
2023-09-22T00:37:49.086Z,2.78
2023-09-22T00:39:50.780Z,3.35
2023-09-22T00:41:54.934Z,3.10
2023-09-22T00:43:57.089Z,3.42
2023-09-22T00:45:58.804Z,2.78
2023-09-22T00:48:00.568Z,4.00
2023-09-22T00:50:03.050Z,3.42
2023-09-22T00:52:04.884Z,2.72
2023-09-22T00:54:06.669Z,3.10
2023-09-22T00:56:08.597Z,4.03
2023-09-22T00:58:10.486Z,3.00
2023-09-22T01:00:12.688Z,3.83
2023-09-22T01:02:14.265Z,3.58
2023-09-22T01:04:16.110Z,3.30
2023-09-22T01:06:18.289Z,2.65
2023-09-22T01:08:20.253Z,3.42
2023-09-22T01:10:22.463Z,3.78
2023-09-22T01:12:24.030Z,4.38
2023-09-22T01:14:25.706Z,4.18
2023-09-22T01:16:27.645Z,3.28
2023-09-22T01:18:30.540Z,3.13
2023-09-22T01:20:34.194Z,3.33
2023-09-22T01:22:36.432Z,3.50
2023-09-22T01:24:38.214Z,2.22
2023-09-22T01:26:40.197Z,2.45
2023-09-22T01:28:41.898Z,3.75
2023-09-22T01:30:44.049Z,3.00
2023-09-22T01:32:45.680Z,2.83
2023-09-22T01:34:47.313Z,2.47
2023-09-22T01:36:49.117Z,2.35
2023-09-22T01:38:50.803Z,3.03
2023-09-22T01:40:53.287Z,2.95
2023-09-22T01:42:55.265Z,2.92
2023-09-22T01:44:57.051Z,3.58
2023-09-22T01:46:58.679Z,2.83
2023-09-22T01:49:00.607Z,3.13
2023-09-22T01:51:03.722Z,4.68
2023-09-22T01:53:06.314Z,3.60
2023-09-22T01:55:08.172Z,3.28
2023-09-22T01:57:09.811Z,3.20
2023-09-22T01:59:11.597Z,2.95
2023-09-22T02:01:14.116Z,3.47
2023-09-22T02:03:16.274Z,3.65
2023-09-22T02:05:18.062Z,3.00
2023-09-22T02:07:19.709Z,2.90
2023-09-22T02:09:21.470Z,4.50
2023-09-22T02:11:23.141Z,3.70
2023-09-22T02:13:24.809Z,3.47
2023-09-22T02:15:26.402Z,4.63
2023-09-22T02:17:28.515Z,2.80
2023-09-22T02:19:31.020Z,3.60
2023-09-22T02:21:32.717Z,4.15
2023-09-22T02:23:34.452Z,3.15
2023-09-22T02:25:37.161Z,3.35
2023-09-22T02:27:39.028Z,3.50
2023-09-22T02:29:40.726Z,4.15
2023-09-22T02:31:42.398Z,4.18
2023-09-22T02:33:44.045Z,3.85
2023-09-22T02:35:45.751Z,4.65
2023-09-22T02:37:47.350Z,4.78
2023-09-22T02:39:49.103Z,4.35
2023-09-22T02:41:50.862Z,3.50
2023-09-22T02:43:52.622Z,3.65
2023-09-22T02:45:54.405Z,3.25
2023-09-22T02:47:56.116Z,3.72
2023-09-22T02:49:58.015Z,3.63
2023-09-22T02:51:59.763Z,4.07
2023-09-22T02:54:01.493Z,4.57
2023-09-22T02:56:09.041Z,4.05
2023-09-22T02:58:10.657Z,4.13
2023-09-22T03:00:30.243Z,4.00
2023-09-22T03:02:32.738Z,6.38
2023-09-22T03:04:35.123Z,4.13
2023-09-22T03:06:37.163Z,4.80
2023-09-22T03:08:39.644Z,4.63
2023-09-22T03:10:41.386Z,5.18
2023-09-22T03:12:43.870Z,4.55
2023-09-22T03:14:48.540Z,5.63
2023-09-22T03:16:50.625Z,5.25
2023-09-22T03:18:52.335Z,4.43
2023-09-22T03:20:53.986Z,5.55
2023-09-22T03:22:55.556Z,5.55
2023-09-22T03:24:57.924Z,4.72
2023-09-22T03:29:01.841Z,4.40
2023-09-22T03:31:05.093Z,5.90
2023-09-22T03:33:06.893Z,5.72
2023-09-22T03:35:09.644Z,5.22
2023-09-22T03:37:11.559Z,5.20
2023-09-22T03:39:14.014Z,5.18
2023-09-22T03:41:17.387Z,4.78
2023-09-22T03:43:18.950Z,4.85
2023-09-22T03:45:20.543Z,5.85
2023-09-22T03:47:22.223Z,4.28
2023-09-22T03:49:23.899Z,4.57
2023-09-22T03:51:25.504Z,4.63
2023-09-22T03:53:28.739Z,5.25
2023-09-22T03:55:30.935Z,4.70
2023-09-22T03:57:32.557Z,5.15
2023-09-22T03:59:34.307Z,5.60
2023-09-22T04:01:37.224Z,5.22
2023-09-22T04:03:39.028Z,5.20
2023-09-22T04:05:40.838Z,5.07
2023-09-22T04:07:42.467Z,4.88
2023-09-22T04:09:45.652Z,5.70
2023-09-22T04:11:47.289Z,4.85
2023-09-22T04:13:49.084Z,6.70
2023-09-22T04:15:59.744Z,5.50
2023-09-22T04:18:02.974Z,5.22
2023-09-22T04:20:09.456Z,4.40
2023-09-22T04:22:13.363Z,5.03
2023-09-22T04:24:16.336Z,5.60
2023-09-22T04:26:18.172Z,6.20
2023-09-22T04:28:24.521Z,5.40
2023-09-22T04:30:26.539Z,5.43
2023-09-22T04:32:34.683Z,4.65
2023-09-22T04:34:36.733Z,4.47
2023-09-22T04:36:38.391Z,5.63
2023-09-22T04:38:39.955Z,4.97
2023-09-22T04:40:42.035Z,3.35
2023-09-22T04:42:43.655Z,4.57
2023-09-22T04:44:46.272Z,4.30
2023-09-22T04:46:47.925Z,5.78
2023-09-22T04:48:50.391Z,4.85
2023-09-22T04:50:55.933Z,5.10
2023-09-22T04:52:57.569Z,4.80
2023-09-22T04:54:59.306Z,5.18
2023-09-22T04:57:00.898Z,4.68
2023-09-22T04:59:02.626Z,4.75
2023-09-22T05:01:04.808Z,4.38
2023-09-22T05:03:06.633Z,4.78
2023-09-22T05:05:08.651Z,5.13
2023-09-22T05:07:10.519Z,4.95
2023-09-22T05:09:12.743Z,4.93
2023-09-22T05:11:14.289Z,5.47
2023-09-22T05:13:19.372Z,5.40
2023-09-22T05:15:21.377Z,7.00
2023-09-22T05:17:23.448Z,6.70
2023-09-22T05:19:25.697Z,6.35
2023-09-22T05:21:27.343Z,5.63
2023-09-22T05:23:29.896Z,7.00
2023-09-22T05:25:31.898Z,6.30
2023-09-22T05:27:33.581Z,6.15
2023-09-22T05:29:35.296Z,5.35
2023-09-22T05:31:37.899Z,6.57
2023-09-22T05:33:39.705Z,7.65
2023-09-22T05:35:41.416Z,6.65
2023-09-22T05:39:45.252Z,6.32
2023-09-22T05:41:50.362Z,5.90
2023-09-22T05:43:54.224Z,5.47
2023-09-22T05:45:56.452Z,5.38
2023-09-22T05:50:00.695Z,6.70
2023-09-22T05:52:02.513Z,6.30
2023-09-22T05:54:04.599Z,6.25
2023-09-22T05:56:09.324Z,5.53
2023-09-22T05:58:12.596Z,6.03
2023-09-22T06:00:18.016Z,6.10
2023-09-22T06:02:20.812Z,6.43
2023-09-22T06:04:22.643Z,5.65
2023-09-22T06:06:24.876Z,6.47
2023-09-22T06:08:26.421Z,6.35
2023-09-22T06:10:28.012Z,6.63
2023-09-22T06:12:30.675Z,6.57
2023-09-22T06:14:32.333Z,6.22
2023-09-22T06:16:34.088Z,7.43
2023-09-22T06:18:35.777Z,5.55
2023-09-22T06:20:37.403Z,7.03
2023-09-22T06:22:38.994Z,6.05
2023-09-22T06:24:40.711Z,7.03
2023-09-22T06:26:42.358Z,5.95
2023-09-22T06:28:44.236Z,6.22
2023-09-22T06:30:48.073Z,6.45
2023-09-22T06:32:49.793Z,5.50
2023-09-22T06:34:53.601Z,5.70
2023-09-22T06:36:55.963Z,5.50
2023-09-22T06:40:59.606Z,6.18
2023-09-22T06:43:12.820Z,6.28
2023-09-22T06:45:22.841Z,6.00
2023-09-22T06:47:25.570Z,6.43
2023-09-22T06:49:29.532Z,7.03
2023-09-22T06:51:34.467Z,7.63
2023-09-22T06:53:37.908Z,6.95
2023-09-22T06:55:39.891Z,5.95
2023-09-22T06:57:41.989Z,8.40
2023-09-22T06:59:44.038Z,5.43
2023-09-22T07:01:45.973Z,5.80
2023-09-22T07:03:49.531Z,5.38
2023-09-22T07:05:51.354Z,5.40
2023-09-22T07:07:53.737Z,6.35
2023-09-22T07:09:55.453Z,5.07
2023-09-22T07:11:57.078Z,5.93
2023-09-22T07:13:58.803Z,5.70
2023-09-22T07:16:00.497Z,5.72
2023-09-22T07:18:02.405Z,4.90
2023-09-22T07:20:05.550Z,5.05
2023-09-22T07:22:09.444Z,6.18
2023-09-22T07:24:11.174Z,6.53
2023-09-22T07:26:13.147Z,7.32
2023-09-22T07:28:14.918Z,5.93
2023-09-22T07:30:18.152Z,7.22
2023-09-22T07:32:20.282Z,7.18
2023-09-22T07:34:23.111Z,7.68
2023-09-22T07:36:24.699Z,5.78
2023-09-22T07:38:27.347Z,6.97
2023-09-22T07:40:29.026Z,6.18
2023-09-22T07:42:33.043Z,6.55
2023-09-22T07:44:34.754Z,6.38
2023-09-22T07:46:36.453Z,4.97
2023-09-22T07:48:38.820Z,5.13
2023-09-22T07:52:44.693Z,5.95
2023-09-22T07:54:46.642Z,5.80
2023-09-22T07:56:51.179Z,5.50
2023-09-22T07:59:10.470Z,6.15
2023-09-22T08:01:17.109Z,5.28
2023-09-22T08:03:22.612Z,4.10
2023-09-22T08:05:25.610Z,5.68
2023-09-22T08:07:28.893Z,5.50
2023-09-22T08:09:30.745Z,4.35
2023-09-22T08:11:32.839Z,4.60
2023-09-22T08:13:38.204Z,4.03
2023-09-22T08:15:39.970Z,5.43
2023-09-22T08:17:43.270Z,4.45
2023-09-22T08:19:44.955Z,5.43
2023-09-22T08:21:47.965Z,4.28
2023-09-22T08:23:52.490Z,4.72
2023-09-22T08:25:57.507Z,4.72
2023-09-22T08:28:00.060Z,5.65
2023-09-22T08:30:03.942Z,4.93
2023-09-22T08:32:08.551Z,4.97
2023-09-22T08:34:12.644Z,4.45
2023-09-22T08:36:15.742Z,5.18
2023-09-22T08:38:17.283Z,4.43
2023-09-22T08:40:19.512Z,3.42
2023-09-22T08:42:21.768Z,4.93
2023-09-22T08:44:26.024Z,3.95
2023-09-22T08:46:27.880Z,3.28
2023-09-22T08:48:29.817Z,4.13
2023-09-22T08:50:32.090Z,2.95
2023-09-22T08:54:35.679Z,4.22
2023-09-22T08:56:37.506Z,3.78
2023-09-22T08:58:39.123Z,3.10
2023-09-22T09:00:40.851Z,3.67
2023-09-22T09:02:43.662Z,2.63
2023-09-22T09:04:45.435Z,3.72
2023-09-22T09:06:47.686Z,3.78
2023-09-22T09:09:05.719Z,3.72
2023-09-22T09:11:09.182Z,2.63
2023-09-22T09:13:14.452Z,2.80
2023-09-22T09:15:16.133Z,1.88
2023-09-22T09:17:24.018Z,1.63
2023-09-22T09:19:27.586Z,1.60
2023-09-22T09:21:29.475Z,1.92
2023-09-22T09:23:31.394Z,1.60
2023-09-22T09:25:32.991Z,2.58
2023-09-22T09:27:34.626Z,2.03
2023-09-22T09:29:37.050Z,1.70
2023-09-22T09:31:49.031Z,2.50
2023-09-22T09:33:52.964Z,1.67
2023-09-22T09:35:55.372Z,1.92
2023-09-22T09:38:04.572Z,2.67
2023-09-22T09:40:11.640Z,2.08
2023-09-22T09:42:18.248Z,2.60
2023-09-22T09:44:21.670Z,1.77
2023-09-22T09:46:23.363Z,1.30
2023-09-22T09:48:25.808Z,2.25
2023-09-22T09:50:28.672Z,1.63
2023-09-22T09:52:39.287Z,1.75
2023-09-22T09:54:42.413Z,1.23
2023-09-22T09:56:44.418Z,1.52
2023-09-22T09:58:49.736Z,0.90
2023-09-22T10:00:52.174Z,1.40
2023-09-22T10:02:58.457Z,1.35
2023-09-22T10:05:07.725Z,1.10
2023-09-22T10:07:09.713Z,1.60
2023-09-22T10:09:13.137Z,0.90
2023-09-22T10:11:15.010Z,0.93
2023-09-22T10:13:17.305Z,0.98
2023-09-22T10:15:39.296Z,1.08
2023-09-22T10:17:41.085Z,0.95
2023-09-22T10:19:42.891Z,0.93
2023-09-22T10:21:47.834Z,0.95
2023-09-22T10:24:09.461Z,0.90
2023-09-22T10:26:15.846Z,0.90
2023-09-22T10:28:27.208Z,1.08
2023-09-22T10:30:46.990Z,1.00
2023-09-22T10:32:48.984Z,0.80
2023-09-22T10:34:56.783Z,0.80
2023-09-22T10:37:08.089Z,0.95
2023-09-22T10:39:11.009Z,0.90
2023-09-22T10:41:14.276Z,1.23
2023-09-22T10:43:17.169Z,0.98
2023-09-22T10:45:20.809Z,1.00
2023-09-22T10:47:22.513Z,1.10
2023-09-22T10:49:29.942Z,0.80
2023-09-22T10:51:44.784Z,0.90
2023-09-22T10:53:58.163Z,1.00
2023-09-22T10:56:01.074Z,0.80
2023-09-22T10:58:05.492Z,0.80
2023-09-22T11:00:14.289Z,0.70
2023-09-22T11:02:22.795Z,0.80
2023-09-22T11:04:40.110Z,1.48
2023-09-22T11:06:47.612Z,0.77
2023-09-22T11:08:50.548Z,1.20
2023-09-22T11:10:53.871Z,1.30
2023-09-22T11:12:58.162Z,0.93
2023-09-22T11:15:01.619Z,0.93
2023-09-22T11:17:04.072Z,1.02
2023-09-22T11:19:06.456Z,1.08
2023-09-22T11:21:11.504Z,0.80
2023-09-22T11:23:13.347Z,0.90
2023-09-22T11:25:15.169Z,0.90
2023-09-22T11:27:16.872Z,0.90
2023-09-22T11:29:18.996Z,0.90
2023-09-22T11:31:21.227Z,0.95
2023-09-22T11:35:35.231Z,1.05
2023-09-22T11:39:38.404Z,0.80
2023-09-22T11:41:40.111Z,0.80
2023-09-22T11:43:41.997Z,0.70
2023-09-22T11:45:43.757Z,0.80
2023-09-22T11:47:45.700Z,0.80
2023-09-22T11:49:48.120Z,0.85
2023-09-22T11:51:52.910Z,0.70
2023-09-22T11:53:54.630Z,0.98
2023-09-22T11:55:56.643Z,0.70
2023-09-22T12:00:00.569Z,0.80
2023-09-22T12:02:04.406Z,0.60
2023-09-22T12:04:10.584Z,0.75
2023-09-22T12:06:14.398Z,0.80
2023-09-22T12:08:16.469Z,0.80
2023-09-22T12:10:18.927Z,0.70
2023-09-22T12:12:22.191Z,0.80
2023-09-22T12:14:24.907Z,1.08
2023-09-22T12:16:27.118Z,0.70
2023-09-22T12:20:30.258Z,0.73
2023-09-22T12:22:31.919Z,0.70
2023-09-22T12:24:33.684Z,0.90
2023-09-22T12:26:35.320Z,1.00
2023-09-22T12:28:37.627Z,0.77
2023-09-22T12:30:39.205Z,0.95
2023-09-22T12:32:41.140Z,1.05
2023-09-22T12:36:44.453Z,1.27
2023-09-22T12:38:46.432Z,0.80
2023-09-22T12:40:48.050Z,1.27
2023-09-22T12:42:49.739Z,0.68
2023-09-22T12:44:52.027Z,0.70
2023-09-22T12:46:53.698Z,1.65
2023-09-22T12:48:55.754Z,0.80
2023-09-22T12:53:01.867Z,0.73
2023-09-22T12:55:04.612Z,0.85
2023-09-22T12:57:06.224Z,0.82
2023-09-22T12:59:09.558Z,0.80
2023-09-22T13:01:12.117Z,0.73
2023-09-22T13:03:14.591Z,0.73
2023-09-22T13:05:17.302Z,0.70
2023-09-22T13:07:19.983Z,0.77
2023-09-22T13:09:21.645Z,1.40
2023-09-22T13:11:23.304Z,0.70
2023-09-22T13:13:24.971Z,0.82
2023-09-22T13:15:26.757Z,0.73
2023-09-22T13:17:28.656Z,1.10
2023-09-22T13:19:32.697Z,0.90
2023-09-22T13:21:34.388Z,0.80
2023-09-22T13:23:36.795Z,0.70
2023-09-22T13:25:39.764Z,0.80
2023-09-22T13:27:43.179Z,0.70
2023-09-22T13:29:44.894Z,1.00
2023-09-22T13:31:47.501Z,1.15
2023-09-22T13:33:49.398Z,1.00
2023-09-22T13:35:51.409Z,1.20
2023-09-22T13:37:53.727Z,1.08
2023-09-22T13:39:55.578Z,1.42
2023-09-22T13:41:57.949Z,0.77
2023-09-22T13:43:59.691Z,0.93
2023-09-22T13:46:01.316Z,0.82
2023-09-22T13:48:03.678Z,0.90
2023-09-22T13:50:05.909Z,0.90
2023-09-22T13:52:07.828Z,1.02
2023-09-22T13:54:10.272Z,1.23
2023-09-22T13:56:16.486Z,0.90
2023-09-22T13:58:18.095Z,0.90
2023-09-22T14:00:19.981Z,1.02
2023-09-22T14:02:22.151Z,0.90
2023-09-22T14:06:25.881Z,1.00
2023-09-22T14:08:27.512Z,0.90
2023-09-22T14:10:29.476Z,1.10
2023-09-22T14:12:32.297Z,1.33
2023-09-22T14:14:34.045Z,1.08
2023-09-22T14:16:35.718Z,0.90
2023-09-22T14:18:38.525Z,1.05
2023-09-22T14:20:42.183Z,1.00
2023-09-22T14:22:44.047Z,1.30
2023-09-22T14:24:47.847Z,0.90
2023-09-22T14:26:49.587Z,0.90
2023-09-22T14:28:51.330Z,1.05
2023-09-22T14:30:53.160Z,1.00
2023-09-22T14:32:55.447Z,1.15
2023-09-22T14:34:57.805Z,1.30
2023-09-22T14:39:01.056Z,1.20
2023-09-22T14:41:06.640Z,1.77
2023-09-22T14:43:08.388Z,1.08
2023-09-22T14:45:10.836Z,1.75
2023-09-22T14:47:12.643Z,0.90
2023-09-22T14:49:14.559Z,1.80
2023-09-22T14:51:16.593Z,0.95
2023-09-22T14:53:18.772Z,0.90
2023-09-22T14:55:20.994Z,0.90
2023-09-22T14:59:24.322Z,0.80
2023-09-22T15:01:26.116Z,1.02
2023-09-22T15:03:28.138Z,0.90
2023-09-22T15:05:29.827Z,0.80
2023-09-22T15:07:32.538Z,1.13
2023-09-22T15:09:34.332Z,1.10
2023-09-22T15:11:36.531Z,0.88
2023-09-22T15:15:39.821Z,0.80
2023-09-22T15:17:41.628Z,1.20
2023-09-22T15:19:43.325Z,0.70
2023-09-22T15:21:45.222Z,0.70
2023-09-22T15:23:46.852Z,0.90
2023-09-22T15:25:49.455Z,0.90
2023-09-22T15:27:51.530Z,0.80
2023-09-22T15:29:53.457Z,1.00
2023-09-22T15:31:55.913Z,0.80
2023-09-22T15:33:57.660Z,0.70
2023-09-22T15:35:59.405Z,0.98
2023-09-22T15:38:01.182Z,0.80
2023-09-22T15:40:06.405Z,1.20
2023-09-22T15:42:08.348Z,0.70
2023-09-22T15:44:10.480Z,0.70
2023-09-22T15:48:14.446Z,0.80
2023-09-22T15:50:16.125Z,0.70
2023-09-22T15:52:17.878Z,0.80
2023-09-22T15:54:19.540Z,0.70
2023-09-22T15:56:21.272Z,0.70
2023-09-22T15:58:23.318Z,0.70
2023-09-22T16:02:27.267Z,0.95
2023-09-22T16:04:29.118Z,0.80
2023-09-22T16:06:33.740Z,0.90
2023-09-22T16:08:38.543Z,0.70
2023-09-22T16:10:44.676Z,0.70
2023-09-22T16:12:46.417Z,0.70
2023-09-22T16:14:48.061Z,1.00
2023-09-22T16:16:49.731Z,0.70
2023-09-22T16:18:51.377Z,1.15
2023-09-22T16:20:53.164Z,0.90
2023-09-22T16:22:54.908Z,0.95
2023-09-22T16:24:57.187Z,1.00
2023-09-22T16:29:01.890Z,0.82
2023-09-22T16:31:04.043Z,1.02
2023-09-22T16:33:06.447Z,0.80
2023-09-22T16:35:08.732Z,1.23
2023-09-22T16:39:14.650Z,1.17
2023-09-22T16:43:19.044Z,1.17
2023-09-22T16:45:20.942Z,1.25
2023-09-22T16:47:22.751Z,1.30
2023-09-22T16:49:24.833Z,0.95
2023-09-22T16:51:26.565Z,1.80
2023-09-22T16:53:29.589Z,1.23
2023-09-22T16:55:33.317Z,1.00
2023-09-22T16:57:34.906Z,1.25
2023-09-22T16:59:37.721Z,1.80
2023-09-22T17:01:39.958Z,0.98
2023-09-22T17:05:43.391Z,1.30
2023-09-22T17:07:46.108Z,1.52
2023-09-22T17:09:48.265Z,1.10
2023-09-22T17:11:49.933Z,1.00
2023-09-22T17:13:51.765Z,1.00
2023-09-22T17:15:53.878Z,1.50
2023-09-22T17:17:55.524Z,1.10
2023-09-22T17:19:57.794Z,1.10
2023-09-22T17:21:59.853Z,1.52
2023-09-22T17:24:01.707Z,1.02
2023-09-22T17:26:03.420Z,1.38
2023-09-22T17:28:05.626Z,0.90
2023-09-22T17:32:09.846Z,0.90
2023-09-22T17:34:11.638Z,1.40
2023-09-22T17:36:13.282Z,1.00
2023-09-22T17:38:15.135Z,1.15
2023-09-22T17:40:16.889Z,1.20
2023-09-22T17:42:19.784Z,1.90
2023-09-22T17:44:24.018Z,1.13
2023-09-22T17:46:26.885Z,1.00
2023-09-22T17:48:28.893Z,0.95
2023-09-22T17:50:32.271Z,0.93
2023-09-22T17:52:33.955Z,1.52
2023-09-22T17:54:35.870Z,1.00
2023-09-22T17:56:37.749Z,1.30
2023-09-22T17:58:39.809Z,1.10
2023-09-22T18:00:41.597Z,0.95
2023-09-22T18:02:43.441Z,1.20
2023-09-22T18:04:45.421Z,0.90
2023-09-22T18:06:48.020Z,1.00
2023-09-22T18:08:49.905Z,1.23
2023-09-22T18:10:51.848Z,0.98
2023-09-22T18:12:53.509Z,1.20
2023-09-22T18:14:55.585Z,0.98
2023-09-22T18:16:58.462Z,1.13
2023-09-22T18:19:00.283Z,1.40
2023-09-22T18:21:02.004Z,1.15
2023-09-22T18:23:04.464Z,1.08
2023-09-22T18:25:10.213Z,1.52
2023-09-22T18:27:11.927Z,1.05
2023-09-22T18:29:13.850Z,1.35
2023-09-22T18:31:15.641Z,0.88
2023-09-22T18:33:17.678Z,0.80
2023-09-22T18:37:21.454Z,0.90
2023-09-22T18:39:23.512Z,0.90
2023-09-22T18:41:25.151Z,1.13
2023-09-22T18:43:26.933Z,0.98
2023-09-22T18:45:29.299Z,1.00
2023-09-22T18:47:31.004Z,1.00
2023-09-22T18:49:34.706Z,1.00
2023-09-22T18:51:36.394Z,1.10
2023-09-22T18:53:39.822Z,0.90
2023-09-22T18:55:49.575Z,0.90
2023-09-22T18:57:52.984Z,0.90
2023-09-22T18:59:54.679Z,1.80
2023-09-22T19:01:56.761Z,0.80
2023-09-22T19:04:01.415Z,1.00
2023-09-22T19:06:04.790Z,0.90
2023-09-22T19:08:07.212Z,0.80
2023-09-22T19:10:12.168Z,0.80
2023-09-22T19:12:16.170Z,0.80
2023-09-22T19:14:18.033Z,1.00
2023-09-22T19:16:21.270Z,0.90
2023-09-22T19:18:23.345Z,0.77
2023-09-22T19:20:25.456Z,0.80
2023-09-22T19:22:27.398Z,1.00
2023-09-22T19:24:29.151Z,1.00
2023-09-22T19:26:34.062Z,1.67
2023-09-22T19:28:35.786Z,0.98
2023-09-22T19:30:42.848Z,1.27
2023-09-22T19:32:45.374Z,0.90
2023-09-22T19:34:47.249Z,0.90
2023-09-22T19:36:49.043Z,1.20
2023-09-22T19:38:50.829Z,1.00
2023-09-22T19:40:52.717Z,1.00
2023-09-22T19:42:54.278Z,0.90
2023-09-22T19:44:56.050Z,1.00
2023-09-22T19:46:58.757Z,1.00
2023-09-22T19:49:00.917Z,1.00
2023-09-22T19:51:04.564Z,0.90
2023-09-22T19:53:07.090Z,0.90
2023-09-22T19:55:09.521Z,1.00
2023-09-22T19:59:12.889Z,0.90
2023-09-22T20:01:14.615Z,0.80
2023-09-22T20:03:16.581Z,1.10
2023-09-22T20:05:18.498Z,0.90
2023-09-22T20:07:20.313Z,1.00
2023-09-22T20:09:22.967Z,1.00
2023-09-22T20:11:26.326Z,1.00
2023-09-22T20:13:28.172Z,1.10
2023-09-22T20:15:29.862Z,0.90
2023-09-22T20:17:31.804Z,1.17
2023-09-22T20:19:36.910Z,1.05
2023-09-22T20:21:39.038Z,0.90
2023-09-22T20:23:40.837Z,0.80
2023-09-22T20:25:42.490Z,0.90
2023-09-22T20:27:44.396Z,1.05
2023-09-22T20:29:49.712Z,1.00
2023-09-22T20:31:51.605Z,1.00
2023-09-22T20:33:53.380Z,1.20
2023-09-22T20:35:58.058Z,1.25
2023-09-22T20:37:59.833Z,1.23
2023-09-22T20:40:01.645Z,1.00
2023-09-22T20:42:03.555Z,1.17
2023-09-22T20:44:06.958Z,1.13
2023-09-22T20:46:10.091Z,1.05
2023-09-22T20:48:11.917Z,0.93
2023-09-22T20:50:14.912Z,1.45
2023-09-22T20:52:16.702Z,0.90
2023-09-22T20:54:18.353Z,1.52
2023-09-22T20:56:20.844Z,1.10
2023-09-22T20:58:22.887Z,1.00
2023-09-22T21:00:25.137Z,1.00
2023-09-22T21:02:26.896Z,1.10
2023-09-22T21:04:28.708Z,1.00
2023-09-22T21:06:30.401Z,1.23
2023-09-22T21:08:32.008Z,1.00
2023-09-22T21:10:34.329Z,0.90
2023-09-22T21:14:37.468Z,0.95
2023-09-22T21:16:39.045Z,0.90
2023-09-22T21:18:40.743Z,1.10
2023-09-22T21:20:42.350Z,0.90
2023-09-22T21:22:44.423Z,0.80
2023-09-22T21:24:46.169Z,0.90
2023-09-22T21:26:47.824Z,0.93
2023-09-22T21:28:49.648Z,1.00
2023-09-22T21:30:54.392Z,1.00
2023-09-22T21:32:56.096Z,0.90
2023-09-22T21:34:57.800Z,1.05
2023-09-22T21:36:59.523Z,1.00
2023-09-22T21:39:01.287Z,1.10
2023-09-22T21:41:14.192Z,1.20
2023-09-22T21:43:15.995Z,1.00
2023-09-22T21:45:17.656Z,0.90
2023-09-22T21:47:20.813Z,1.45
2023-09-22T21:49:22.630Z,0.90
2023-09-22T21:51:24.454Z,1.10
2023-09-22T21:53:31.966Z,1.00
2023-09-22T21:55:34.363Z,1.00
2023-09-22T21:59:38.270Z,0.90
2023-09-22T22:01:40.931Z,1.20
2023-09-22T22:03:44.479Z,1.10
2023-09-22T22:05:46.555Z,1.00
2023-09-22T22:07:48.189Z,0.93
2023-09-22T22:09:58.343Z,1.20
2023-09-22T22:11:59.903Z,0.90
2023-09-22T22:14:06.882Z,1.10
2023-09-22T22:16:12.415Z,0.90
2023-09-22T22:18:15.664Z,1.00
2023-09-22T22:20:24.910Z,1.15
2023-09-22T22:22:28.649Z,1.20
2023-09-22T22:24:30.794Z,1.20
2023-09-22T22:26:33.109Z,0.90
2023-09-22T22:28:35.324Z,1.00
2023-09-22T22:30:38.311Z,1.05
2023-09-22T22:32:39.978Z,1.00
2023-09-22T22:34:41.829Z,1.17
2023-09-22T22:36:44.967Z,1.17
2023-09-22T22:38:47.601Z,1.00
2023-09-22T22:40:49.583Z,1.10
2023-09-22T22:42:52.258Z,2.22
2023-09-22T22:44:54.009Z,1.00
2023-09-22T22:46:55.791Z,1.20
2023-09-22T22:49:00.083Z,1.00
2023-09-22T22:51:02.175Z,1.25
2023-09-22T22:53:06.070Z,1.48
2023-09-22T22:55:08.101Z,1.20
2023-09-22T22:57:09.780Z,1.20
2023-09-22T22:59:11.717Z,1.10
2023-09-22T23:01:17.418Z,1.10
2023-09-22T23:03:20.851Z,1.42
2023-09-22T23:05:24.449Z,1.10
2023-09-22T23:07:30.429Z,1.20
2023-09-22T23:09:34.181Z,1.30
2023-09-22T23:11:37.648Z,1.15
2023-09-22T23:13:43.461Z,1.27
2023-09-22T23:15:49.936Z,1.10
2023-09-22T23:17:56.778Z,1.20
2023-09-22T23:20:00.477Z,1.55
2023-09-22T23:22:09.405Z,1.92
2023-09-22T23:24:14.784Z,2.45
2023-09-22T23:26:17.950Z,1.38
2023-09-22T23:28:21.276Z,1.60
2023-09-22T23:30:24.954Z,1.92
2023-09-22T23:32:28.395Z,2.25
2023-09-22T23:34:31.744Z,1.60
2023-09-22T23:36:35.458Z,1.70
2023-09-22T23:38:38.719Z,1.40
2023-09-22T23:40:44.342Z,1.73
2023-09-22T23:42:47.413Z,1.58
2023-09-22T23:44:51.204Z,2.08
2023-09-22T23:46:55.231Z,1.40
2023-09-22T23:49:03.114Z,1.45
2023-09-22T23:51:06.943Z,1.95
2023-09-22T23:53:10.049Z,1.73
2023-09-22T23:55:15.489Z,1.60
2023-09-22T23:57:19.193Z,1.35
2023-09-22T23:59:22.696Z,1.40
